Time;durP1;ratioP1;P1;durP2;ratioP2;P2;SDS_P1;SDS_P2;PMS_P1;PMS_P2;Temp;Humidity;BMP_temperature;BMP_pressure;BME280_temperature;BME280_humidity;BME280_pressure;Samples;Min_cycle;Max_cycle;Signal;HPM_P1;HPM_P2
2022/04/22 03:03:05;;;;;;;0.90;0.90;;;11.10;68.80;;;;;;4972541;28;20505;-75
2022/04/22 03:05:31;;;;;;;0.93;0.93;;;11.10;68.80;;;;;;4973596;28;20812;-75
2022/04/22 03:07:58;;;;;;;1.10;1.10;;;11.00;68.90;;;;;;4973947;28;20446;-75
2022/04/22 03:10:24;;;;;;;1.07;1.07;;;11.00;69.10;;;;;;4973796;28;20484;-75
2022/04/22 03:12:51;;;;;;;1.00;1.00;;;11.00;69.00;;;;;;4973545;28;20482;-75
2022/04/22 03:15:18;;;;;;;1.00;1.00;;;11.00;69.00;;;;;;4974980;28;20809;-76
2022/04/22 03:17:45;;;;;;;1.10;1.10;;;11.00;69.00;;;;;;4973850;28;20457;-75
2022/04/22 03:20:13;;;;;;;1.30;1.20;;;11.00;69.10;;;;;;4973829;28;20450;-76
2022/04/22 03:22:39;;;;;;;0.90;0.90;;;11.00;69.20;;;;;;4973752;28;20468;-76
2022/04/22 03:25:07;;;;;;;1.00;1.00;;;10.90;69.30;;;;;;4973850;28;20485;-75
2022/04/22 03:27:33;;;;;;;1.00;1.00;;;10.90;69.60;;;;;;4973777;28;20454;-75
2022/04/22 03:30:02;;;;;;;1.13;1.13;;;10.90;69.60;;;;;;4976731;28;20446;-75
2022/04/22 03:32:29;;;;;;;1.03;1.03;;;10.90;69.40;;;;;;4977380;28;20477;-75
2022/04/22 03:34:55;;;;;;;1.10;1.10;;;10.90;69.30;;;;;;4977066;28;20977;-75
2022/04/22 03:37:23;;;;;;;1.17;1.17;;;10.90;69.40;;;;;;4977078;28;20446;-76
2022/04/22 03:39:50;;;;;;;1.07;1.07;;;10.90;69.30;;;;;;4977138;28;20793;-75
2022/04/22 03:42:16;;;;;;;1.00;1.00;;;10.90;69.30;;;;;;4977166;28;20473;-75
2022/04/22 03:44:43;;;;;;;1.37;1.30;;;10.80;69.40;;;;;;4977241;28;20445;-75
2022/04/22 03:47:10;;;;;;;1.10;1.10;;;10.80;69.60;;;;;;4977178;28;20446;-75
2022/04/22 03:49:36;;;;;;;1.10;1.10;;;10.70;69.70;;;;;;4977143;28;20475;-75
2022/04/22 03:52:04;;;;;;;1.07;1.07;;;10.70;69.80;;;;;;4977109;28;20524;-75
2022/04/22 03:54:32;;;;;;;1.10;1.10;;;10.70;69.90;;;;;;4976701;28;20860;-75
2022/04/22 03:59:43;;;;;;;1.30;1.30;;;10.50;70.60;;;;;;4977004;28;20424;-75
2022/04/22 04:02:09;;;;;;;1.00;1.00;;;10.60;70.60;;;;;;4976866;28;20893;-75
2022/04/22 04:04:36;;;;;;;1.10;1.10;;;10.60;70.80;;;;;;4976522;28;21012;-75
2022/04/22 04:07:02;;;;;;;1.20;1.10;;;10.60;70.60;;;;;;4976468;28;20454;-75
2022/04/22 04:17:48;;;;;;;1.13;1.03;;;10.60;70.50;;;;;;4968383;28;20596;-75
2022/04/22 04:23:17;;;;;;;1.87;1.30;;;10.50;70.60;;;;;;4979673;28;20406;-75
2022/04/22 04:25:46;;;;;;;1.20;1.20;;;10.50;70.70;;;;;;4978847;28;20434;-75
2022/04/22 04:28:15;;;;;;;1.57;1.50;;;10.50;70.70;;;;;;4980110;28;21056;-75
2022/04/22 04:30:43;;;;;;;1.20;1.20;;;10.50;70.80;;;;;;4978449;28;20796;-75
2022/04/22 04:33:10;;;;;;;1.30;1.30;;;10.40;70.90;;;;;;4979365;28;20517;-75
2022/04/22 04:35:38;;;;;;;1.40;1.30;;;10.40;71.10;;;;;;4978653;28;20533;-77
2022/04/22 04:38:05;;;;;;;1.63;1.53;;;10.40;71.10;;;;;;4978817;28;20508;-75
2022/04/22 04:40:33;;;;;;;1.23;1.23;;;10.40;71.10;;;;;;4977754;28;20454;-75
2022/04/22 04:43:00;;;;;;;1.20;1.20;;;10.40;71.20;;;;;;4978547;28;20450;-76
2022/04/22 04:45:28;;;;;;;1.20;1.20;;;10.40;71.20;;;;;;4978137;28;20530;-75
2022/04/22 04:47:55;;;;;;;1.17;1.17;;;10.50;71.30;;;;;;4978487;28;20457;-75
2022/04/22 04:50:22;;;;;;;1.13;1.13;;;10.50;71.20;;;;;;4976016;28;20461;-75
2022/04/22 04:52:48;;;;;;;1.60;1.50;;;10.60;71.10;;;;;;4975919;28;20446;-75
2022/04/22 04:55:15;;;;;;;1.50;1.40;;;10.60;71.10;;;;;;4975886;28;20504;-75
2022/04/22 04:57:42;;;;;;;1.30;1.30;;;10.70;71.00;;;;;;4976132;28;20453;-75
2022/04/22 05:00:11;;;;;;;1.47;1.37;;;10.70;70.90;;;;;;4977366;28;20450;-75
2022/04/22 05:02:39;;;;;;;1.27;1.17;;;10.80;70.60;;;;;;4976736;28;20481;-75
2022/04/22 05:05:09;;;;;;;1.30;1.30;;;10.90;70.50;;;;;;4976407;28;20453;-75
2022/04/22 05:07:47;;;;;;;1.30;1.30;;;11.00;70.20;;;;;;4976749;28;20466;-75
2022/04/22 05:10:14;;;;;;;1.27;1.27;;;11.00;70.20;;;;;;4976419;28;20812;-75
2022/04/22 05:12:41;;;;;;;1.43;1.43;;;11.10;70.10;;;;;;4975990;28;20839;-75
2022/04/22 05:15:10;;;;;;;1.60;1.50;;;11.20;70.10;;;;;;4975359;28;21067;-76
2022/04/22 05:17:39;;;;;;;1.73;1.63;;;11.30;69.90;;;;;;4975643;28;20454;-75
2022/04/22 05:20:07;;;;;;;1.60;1.50;;;11.30;69.80;;;;;;4977370;28;20454;-75
2022/04/22 05:22:34;;;;;;;1.67;1.57;;;11.40;69.90;;;;;;4977770;28;20481;-75
2022/04/22 05:25:00;;;;;;;1.70;1.60;;;11.40;69.80;;;;;;4977536;28;20446;-78
2022/04/22 05:27:27;;;;;;;1.70;1.60;;;11.40;69.70;;;;;;4975589;28;20453;-75
2022/04/22 05:32:40;;;;;;;1.73;1.63;;;11.70;69.60;;;;;;4975390;28;21008;-75
2022/04/22 05:35:09;;;;;;;1.80;1.70;;;11.70;69.30;;;;;;4975531;28;20478;-76
2022/04/22 05:37:43;;;;;;;1.80;1.70;;;11.60;69.60;;;;;;4975707;28;20961;-75
2022/04/22 05:40:12;;;;;;;2.07;1.97;;;11.80;69.50;;;;;;4976853;28;20807;-75
2022/04/22 05:42:39;;;;;;;1.73;1.63;;;11.90;69.30;;;;;;4977691;28;20470;-75
2022/04/22 05:45:07;;;;;;;1.70;1.60;;;11.90;68.90;;;;;;4977689;28;20446;-75
2022/04/22 05:47:34;;;;;;;1.83;1.73;;;12.00;69.00;;;;;;4976317;28;20456;-75
2022/04/22 05:50:04;;;;;;;1.70;1.60;;;12.00;69.00;;;;;;4975882;28;20469;-76
2022/04/22 05:52:32;;;;;;;1.90;1.80;;;11.90;69.10;;;;;;4976558;28;20478;-76
2022/04/22 05:55:02;;;;;;;1.70;1.60;;;12.10;69.20;;;;;;4975907;28;20504;-75
2022/04/22 05:57:29;;;;;;;1.73;1.63;;;12.20;68.60;;;;;;4975574;28;20454;-75
2022/04/22 05:59:55;;;;;;;1.47;1.47;;;12.40;68.30;;;;;;4977047;28;20454;-75
2022/04/22 06:02:22;;;;;;;1.53;1.43;;;12.20;68.70;;;;;;4976889;28;20489;-76
2022/04/22 06:04:49;;;;;;;2.00;1.90;;;12.30;69.10;;;;;;4976525;28;20482;-76
2022/04/22 06:07:17;;;;;;;1.50;1.40;;;12.40;68.40;;;;;;4975598;28;20453;-75
2022/04/22 06:12:28;;;;;;;1.80;1.70;;;12.70;67.50;;;;;;4974832;28;20461;-74
2022/04/22 06:14:59;;;;;;;1.80;1.70;;;13.00;66.70;;;;;;4974931;28;20478;-75
2022/04/22 06:17:27;;;;;;;1.70;1.60;;;13.10;66.80;;;;;;4975176;28;20807;-75
2022/04/22 06:19:54;;;;;;;1.63;1.53;;;13.40;66.30;;;;;;4974522;28;20489;-74
2022/04/22 06:22:22;;;;;;;1.70;1.60;;;13.50;65.90;;;;;;4973147;28;20477;-74
2022/04/22 06:24:48;;;;;;;1.97;1.87;;;13.60;65.10;;;;;;4974676;28;20438;-74
2022/04/22 06:27:24;;;;;;;1.87;1.77;;;13.90;65.00;;;;;;4974430;28;20450;-75
2022/04/22 06:29:52;;;;;;;1.57;1.53;;;14.30;63.80;;;;;;4974690;28;20546;-74
2022/04/22 06:32:19;;;;;;;1.60;1.50;;;14.60;63.50;;;;;;4974300;28;20541;-74
2022/04/22 06:34:47;;;;;;;1.77;1.67;;;14.40;62.80;;;;;;4974115;28;20537;-74
2022/04/22 06:37:14;;;;;;;1.90;1.80;;;14.50;63.20;;;;;;4974049;28;20933;-74
2022/04/22 06:47:57;;;;;;;1.80;1.70;;;15.00;60.90;;;;;;4976622;28;20514;-75
2022/04/22 06:50:24;;;;;;;1.90;1.80;;;15.10;61.30;;;;;;4976628;28;20449;-76
2022/04/22 06:52:51;;;;;;;1.77;1.67;;;15.20;60.40;;;;;;4975369;28;20863;-75
2022/04/22 06:55:20;;;;;;;1.90;1.80;;;15.30;60.00;;;;;;4974682;28;20485;-74
2022/04/22 06:57:50;;;;;;;2.27;2.17;;;15.50;60.10;;;;;;4975283;28;20934;-75
2022/04/22 07:00:18;;;;;;;1.70;1.70;;;15.80;59.40;;;;;;4974790;28;20453;-75
2022/04/22 07:02:45;;;;;;;2.00;1.90;;;15.90;58.70;;;;;;4974825;28;20485;-74
2022/04/22 07:05:13;;;;;;;1.73;1.63;;;15.90;59.60;;;;;;4978791;28;20482;-76
2022/04/22 07:07:40;;;;;;;1.90;1.80;;;15.50;59.40;;;;;;4980119;28;20473;-76
2022/04/22 07:10:08;;;;;;;1.80;1.70;;;15.70;59.40;;;;;;4979946;28;20941;-76
2022/04/22 07:12:36;;;;;;;1.73;1.63;;;15.80;59.10;;;;;;4979656;28;20492;-75
2022/04/22 07:15:04;;;;;;;2.27;2.17;;;15.60;60.00;;;;;;4979024;28;20481;-75
2022/04/22 07:17:32;;;;;;;1.77;1.67;;;15.40;59.60;;;;;;4979343;28;20509;-74
2022/04/22 07:20:01;;;;;;;2.00;1.90;;;15.50;60.30;;;;;;4979274;28;20512;-77
2022/04/22 07:22:28;;;;;;;2.03;1.93;;;15.70;59.40;;;;;;4979079;28;20502;-76
2022/04/22 07:24:56;;;;;;;1.80;1.70;;;15.70;59.70;;;;;;4978771;28;20457;-77
2022/04/22 07:27:27;;;;;;;2.20;2.10;;;15.70;59.00;;;;;;4978377;28;20458;-76
2022/04/22 07:29:55;;;;;;;1.80;1.70;;;15.40;60.10;;;;;;4978689;28;20466;-76
2022/04/22 07:32:23;;;;;;;2.07;1.97;;;15.40;60.10;;;;;;4980414;28;20478;-75
2022/04/22 07:34:50;;;;;;;1.60;1.50;;;15.40;60.30;;;;;;4979624;28;20492;-76
2022/04/22 07:37:17;;;;;;;1.90;1.80;;;15.10;60.40;;;;;;4980707;28;20465;-76
2022/04/22 07:39:44;;;;;;;2.10;2.00;;;15.10;61.90;;;;;;4981270;28;20484;-76
2022/04/22 07:42:17;;;;;;;2.00;1.90;;;15.30;60.90;;;;;;4981305;28;21000;-77
2022/04/22 07:47:32;;;;;;;1.87;1.77;;;15.90;59.00;;;;;;4980356;28;20425;-76
2022/04/22 07:50:00;;;;;;;1.53;1.53;;;16.00;59.00;;;;;;4980622;28;20457;-77
2022/04/22 07:52:27;;;;;;;1.90;1.80;;;16.10;59.10;;;;;;4978764;28;20500;-76
2022/04/22 07:54:54;;;;;;;1.70;1.60;;;16.00;59.00;;;;;;4977905;28;20513;-75
2022/04/22 07:57:22;;;;;;;1.63;1.63;;;16.40;59.30;;;;;;4977821;28;20934;-75
2022/04/22 07:59:49;;;;;;;1.83;1.73;;;16.60;58.40;;;;;;4978263;28;20533;-76
2022/04/22 08:02:16;;;;;;;1.67;1.60;;;16.80;57.00;;;;;;4977375;28;20485;-76
2022/04/22 08:04:44;;;;;;;1.90;1.80;;;16.70;57.20;;;;;;4977381;28;20930;-76
2022/04/22 08:07:11;;;;;;;1.70;1.60;;;16.80;56.90;;;;;;4977982;28;20858;-77
2022/04/22 08:09:38;;;;;;;1.80;1.70;;;16.60;57.40;;;;;;4977813;28;20561;-76
2022/04/22 08:12:06;;;;;;;1.90;1.80;;;16.60;56.90;;;;;;4978178;28;20894;-77
2022/04/22 08:14:33;;;;;;;1.60;1.50;;;16.90;57.20;;;;;;4977840;28;20490;-76
2022/04/22 08:17:01;;;;;;;1.97;1.90;;;16.80;57.90;;;;;;4977921;28;20542;-76
2022/04/22 08:19:27;;;;;;;1.80;1.70;;;16.80;57.50;;;;;;4977534;28;20482;-75
2022/04/22 08:21:57;;;;;;;1.97;1.87;;;16.70;57.50;;;;;;4977553;28;20478;-76
2022/04/22 08:24:24;;;;;;;1.90;1.80;;;16.90;56.70;;;;;;4977197;28;20504;-76
2022/04/22 08:26:51;;;;;;;1.60;1.60;;;16.80;56.90;;;;;;4977565;28;20458;-76
2022/04/22 08:29:18;;;;;;;1.40;1.40;;;16.90;57.50;;;;;;4978704;28;20574;-76
2022/04/22 08:31:45;;;;;;;1.70;1.70;;;16.40;57.40;;;;;;4978405;28;20532;-76
2022/04/22 08:34:12;;;;;;;1.73;1.63;;;16.50;59.80;;;;;;4977836;28;20477;-76
2022/04/22 08:36:39;;;;;;;2.13;2.03;;;16.70;58.50;;;;;;4977173;28;20481;-76
2022/04/22 08:39:07;;;;;;;2.10;2.00;;;17.10;57.00;;;;;;4977645;28;20446;-77
2022/04/22 08:41:35;;;;;;;1.70;1.70;;;17.20;57.30;;;;;;4978196;28;20470;-75
2022/04/22 08:44:02;;;;;;;1.67;1.63;;;17.20;56.70;;;;;;4977616;28;20453;-77
2022/04/22 08:52:01;;;;;;;1.67;1.63;;;17.20;58.00;;;;;;4976925;28;20934;-76
2022/04/22 08:54:30;;;;;;;2.00;1.90;;;17.40;55.80;;;;;;4977574;28;20581;-76
2022/04/22 08:56:57;;;;;;;1.60;1.50;;;17.50;58.40;;;;;;4976603;28;20458;-75
2022/04/22 08:59:25;;;;;;;1.70;1.60;;;17.50;56.60;;;;;;4976508;28;20450;-74
2022/04/22 09:01:52;;;;;;;1.53;1.53;;;17.50;56.30;;;;;;4976469;28;20489;-76
2022/04/22 09:04:20;;;;;;;1.93;1.83;;;17.50;55.40;;;;;;4977419;28;20457;-75
2022/04/22 09:06:50;;;;;;;1.50;1.50;;;17.30;55.70;;;;;;4976622;28;20549;-76
2022/04/22 09:09:18;;;;;;;1.70;1.60;;;17.50;56.70;;;;;;4976466;28;20452;-74
2022/04/22 09:11:46;;;;;;;1.60;1.60;;;17.40;56.70;;;;;;4977232;28;20474;-77
2022/04/22 09:14:16;;;;;;;1.67;1.57;;;17.30;56.20;;;;;;4977069;28;20557;-76
2022/04/22 09:16:42;;;;;;;1.60;1.60;;;17.30;56.80;;;;;;4978123;28;20949;-76
2022/04/22 09:19:09;;;;;;;1.53;1.53;;;17.30;56.30;;;;;;4977214;28;20457;-76
2022/04/22 09:21:36;;;;;;;1.50;1.50;;;17.40;57.50;;;;;;4976340;28;20549;-76
2022/04/22 09:24:11;;;;;;;1.50;1.40;;;17.50;56.50;;;;;;4977028;28;20459;-76
2022/04/22 09:26:38;;;;;;;1.80;1.70;;;17.60;56.60;;;;;;4976121;28;20510;-76
2022/04/22 09:29:06;;;;;;;1.63;1.57;;;17.80;56.70;;;;;;4976552;28;20603;-76
2022/04/22 09:31:46;;;;;;;1.87;1.77;;;17.90;54.80;;;;;;4976400;28;20470;-76
2022/04/22 09:34:13;;;;;;;1.57;1.50;;;17.60;55.60;;;;;;4976260;28;20909;-76
2022/04/22 09:44:57;;;;;;;1.40;1.40;;;17.20;57.90;;;;;;4975799;28;20525;-76
2022/04/22 09:47:27;;;;;;;1.40;1.40;;;17.40;56.30;;;;;;4976355;28;20863;-76
2022/04/22 09:49:54;;;;;;;1.70;1.60;;;17.30;56.50;;;;;;4976089;28;20477;-76
2022/04/22 09:52:27;;;;;;;1.60;1.50;;;17.20;56.60;;;;;;4975543;28;20565;-76
2022/04/22 09:54:59;;;;;;;1.63;1.53;;;17.40;57.30;;;;;;4975256;28;20884;-76
2022/04/22 09:57:26;;;;;;;1.80;1.70;;;17.40;57.00;;;;;;4975942;28;20529;-76
2022/04/22 09:59:53;;;;;;;1.80;1.70;;;17.40;55.70;;;;;;4975190;28;20870;-77
2022/04/22 10:02:25;;;;;;;1.50;1.50;;;17.60;56.80;;;;;;4975253;28;20733;-76
2022/04/22 10:04:54;;;;;;;1.50;1.50;;;17.90;55.80;;;;;;4976342;28;20434;-77
2022/04/22 10:07:26;;;;;;;1.43;1.33;;;17.50;56.50;;;;;;4976434;28;20516;-76
2022/04/22 10:09:55;;;;;;;1.27;1.27;;;17.70;58.30;;;;;;4978260;28;20510;-77
2022/04/22 10:12:24;;;;;;;1.20;1.20;;;17.90;57.30;;;;;;4979990;28;20474;-76
2022/04/22 10:14:54;;;;;;;1.43;1.43;;;18.20;56.40;;;;;;4979942;28;20490;-76
2022/04/22 10:17:23;;;;;;;1.30;1.30;;;18.40;54.70;;;;;;4981071;28;20453;-76
2022/04/22 10:19:50;;;;;;;1.90;1.80;;;18.40;56.30;;;;;;4979995;28;20446;-77
2022/04/22 10:22:18;;;;;;;1.70;1.60;;;18.40;55.40;;;;;;4979813;28;20465;-76
2022/04/22 10:24:45;;;;;;;1.43;1.33;;;18.40;54.80;;;;;;4991430;28;20462;-74
2022/04/22 10:27:13;;;;;;;1.70;1.60;;;18.40;54.50;;;;;;4984283;28;20441;-77
2022/04/22 10:29:42;;;;;;;1.60;1.60;;;18.40;55.00;;;;;;4978597;28;20461;-76
2022/04/22 10:32:11;;;;;;;1.77;1.67;;;18.00;55.60;;;;;;4978340;28;20477;-76
2022/04/22 10:34:40;;;;;;;1.40;1.40;;;18.00;55.70;;;;;;4975710;28;20797;-76
2022/04/22 10:37:15;;;;;;;1.50;1.40;;;18.30;55.30;;;;;;4974663;28;20879;-76
2022/04/22 10:39:42;;;;;;;1.20;1.20;;;18.60;55.30;;;;;;4973160;28;20521;-76
2022/04/22 10:42:14;;;;;;;1.20;1.20;;;18.60;54.90;;;;;;4974263;28;20469;-76
2022/04/22 10:47:38;;;;;;;1.57;1.47;;;19.00;53.00;;;;;;4953455;28;20433;-75
2022/04/22 10:50:28;;;;;;;1.30;1.30;;;19.00;54.30;;;;;;4975119;28;20518;-77
2022/04/22 10:53:02;;;;;;;1.57;1.57;;;18.70;54.60;;;;;;4974340;28;20430;-77
2022/04/22 10:55:30;;;;;;;1.40;1.40;;;18.60;54.20;;;;;;4973746;28;20849;-77
2022/04/22 10:58:26;;;;;;;1.47;1.37;;;18.80;54.70;;;;;;4974490;28;20548;-77
2022/04/22 11:00:55;;;;;;;1.40;1.37;;;19.10;54.00;;;;;;4974252;28;20484;-77
2022/04/22 11:03:23;;;;;;;1.27;1.27;;;19.20;55.40;;;;;;4974514;28;20442;-77
2022/04/22 11:05:55;;;;;;;1.37;1.27;;;19.30;53.80;;;;;;4975380;28;20442;-76
2022/04/22 11:08:29;;;;;;;1.37;1.37;;;19.40;53.20;;;;;;4973993;28;20430;-77
2022/04/22 11:11:02;;;;;;;1.50;1.40;;;19.50;52.80;;;;;;4973557;28;21043;-77
2022/04/22 11:13:30;;;;;;;1.40;1.40;;;19.40;53.30;;;;;;4974495;28;20957;-76
2022/04/22 11:16:00;;;;;;;1.50;1.40;;;19.60;53.80;;;;;;4973822;28;20486;-77
2022/04/22 11:18:27;;;;;;;1.40;1.30;;;19.50;53.30;;;;;;4973951;28;20453;-76
2022/04/22 11:21:02;;;;;;;1.30;1.30;;;19.70;55.10;;;;;;4973743;28;20481;-77
2022/04/22 11:23:35;;;;;;;1.17;1.17;;;19.80;53.60;;;;;;4973842;28;20438;-77
2022/04/22 11:26:02;;;;;;;1.30;1.30;;;19.90;52.40;;;;;;4974124;28;20443;-75
2022/04/22 11:28:33;;;;;;;1.30;1.30;;;19.90;52.30;;;;;;4973794;28;20557;-76
2022/04/22 11:31:04;;;;;;;1.40;1.40;;;20.00;52.40;;;;;;4974174;28;20532;-77
2022/04/22 11:33:36;;;;;;;1.33;1.23;;;20.20;53.00;;;;;;4973294;28;20497;-76
2022/04/22 11:36:07;;;;;;;1.37;1.37;;;20.20;52.50;;;;;;4973983;28;20560;-76
2022/04/22 11:38:34;;;;;;;1.47;1.37;;;20.50;52.10;;;;;;4974063;28;20537;-76
2022/04/22 11:41:01;;;;;;;1.40;1.30;;;20.50;50.50;;;;;;4973732;28;20941;-75
2022/04/22 11:43:29;;;;;;;1.37;1.27;;;20.40;50.50;;;;;;4973350;28;20450;-73
2022/04/22 11:45:56;;;;;;;1.30;1.20;;;20.20;52.20;;;;;;4973339;28;20442;-73
2022/04/22 11:48:24;;;;;;;1.43;1.43;;;20.50;52.60;;;;;;4973231;28;20817;-73
2022/04/22 11:50:53;;;;;;;1.40;1.40;;;20.80;52.70;;;;;;4975911;28;20466;-72
2022/04/22 11:53:24;;;;;;;1.53;1.43;;;20.70;51.90;;;;;;4977048;28;20462;-72
2022/04/22 11:55:51;;;;;;;1.30;1.30;;;20.40;52.30;;;;;;4976461;28;21052;-75
2022/04/22 11:58:20;;;;;;;1.33;1.33;;;20.20;51.70;;;;;;4978132;28;20445;-74
2022/04/22 12:06:19;;;;;;;1.10;1.10;;;20.80;51.60;;;;;;4977650;28;20410;-73
2022/04/22 12:08:54;;;;;;;1.43;1.33;;;21.10;51.20;;;;;;4976328;28;20961;-74
2022/04/22 12:11:22;;;;;;;1.30;1.30;;;21.30;50.90;;;;;;4976380;28;20560;-73
2022/04/22 12:13:50;;;;;;;1.40;1.40;;;21.00;50.40;;;;;;4976681;28;20450;-74
2022/04/22 12:16:19;;;;;;;1.20;1.20;;;20.90;50.10;;;;;;4976512;28;20478;-72
2022/04/22 12:18:48;;;;;;;1.30;1.30;;;21.20;50.60;;;;;;4976695;28;20863;-75
2022/04/22 12:21:15;;;;;;;1.20;1.20;;;21.20;50.50;;;;;;4976538;28;20548;-73
2022/04/22 12:23:44;;;;;;;1.10;1.10;;;21.00;50.10;;;;;;4977051;28;20454;-73
2022/04/22 12:26:20;;;;;;;1.27;1.27;;;20.60;51.30;;;;;;4977115;28;20450;-74
2022/04/22 12:28:57;;;;;;;1.43;1.20;;;20.60;51.10;;;;;;4977946;28;20861;-74
2022/04/22 12:31:24;;;;;;;1.10;1.10;;;20.80;51.70;;;;;;4976191;28;20506;-74
2022/04/22 12:33:57;;;;;;;1.60;1.50;;;21.10;50.30;;;;;;4976418;28;20450;-74
2022/04/22 12:36:24;;;;;;;1.17;1.17;;;21.10;49.80;;;;;;4975722;28;20996;-73
2022/04/22 12:38:50;;;;;;;1.00;1.00;;;21.20;49.40;;;;;;4975929;28;20509;-74
2022/04/22 12:41:22;;;;;;;1.00;1.00;;;21.30;50.10;;;;;;4975956;28;20470;-73
2022/04/22 12:43:51;;;;;;;1.10;1.10;;;21.50;48.40;;;;;;4977528;28;20462;-74
2022/04/22 12:52:14;;;;;;;1.30;1.30;;;21.90;48.30;;;;;;4976202;28;20449;-73
2022/04/22 12:54:43;;;;;;;1.30;1.27;;;21.50;49.70;;;;;;4980400;28;20458;-73
2022/04/22 12:57:17;;;;;;;1.00;1.00;;;21.60;49.40;;;;;;4979586;28;20481;-73
2022/04/22 12:59:44;;;;;;;1.40;1.30;;;21.60;49.00;;;;;;4979608;28;20447;-75
2022/04/22 13:02:13;;;;;;;1.33;1.10;;;21.90;49.20;;;;;;4978687;28;20484;-74
2022/04/22 13:04:53;;;;;;;1.20;1.20;;;21.70;48.40;;;;;;4980035;28;20545;-73
2022/04/22 13:07:21;;;;;;;1.10;1.00;;;21.50;48.50;;;;;;4978993;28;20450;-74
2022/04/22 13:09:48;;;;;;;1.20;1.10;;;21.10;49.60;;;;;;4979101;28;20488;-74
2022/04/22 13:12:16;;;;;;;1.33;1.23;;;21.10;49.00;;;;;;4981959;28;20529;-76
2022/04/22 13:14:43;;;;;;;1.13;1.13;;;20.90;49.70;;;;;;4981975;28;20585;-74
2022/04/22 13:17:21;;;;;;;1.10;1.10;;;21.00;48.70;;;;;;4979045;28;20951;-73
2022/04/22 13:19:47;;;;;;;1.17;1.07;;;21.50;49.70;;;;;;4978949;28;20462;-74
2022/04/22 13:22:14;;;;;;;1.10;1.10;;;21.70;48.10;;;;;;4978727;28;20489;-75
2022/04/22 13:24:44;;;;;;;1.20;1.20;;;21.30;48.00;;;;;;4979217;28;20454;-75
2022/04/22 13:27:12;;;;;;;0.90;0.90;;;20.50;48.80;;;;;;4978540;28;20504;-75
2022/04/22 13:29:40;;;;;;;1.20;1.20;;;20.30;50.20;;;;;;4979435;28;20446;-74
2022/04/22 13:32:08;;;;;;;0.90;0.90;;;20.50;50.30;;;;;;4977748;28;21012;-74
2022/04/22 13:34:35;;;;;;;1.30;1.20;;;20.80;50.60;;;;;;4978251;28;20481;-75
2022/04/22 13:37:01;;;;;;;1.20;1.10;;;21.00;49.90;;;;;;4978268;28;20988;-75
2022/04/22 13:39:28;;;;;;;0.90;0.90;;;21.30;47.90;;;;;;4977532;28;20820;-74
2022/04/22 13:41:55;;;;;;;0.90;0.90;;;21.30;48.30;;;;;;4978158;28;20480;-74
2022/04/22 13:52:33;;;;;;;1.20;1.10;;;21.30;46.70;;;;;;4977529;28;20445;-73
2022/04/22 13:55:01;;;;;;;1.00;1.00;;;21.50;47.60;;;;;;4977223;28;20446;-74
2022/04/22 13:57:28;;;;;;;1.00;1.00;;;21.80;48.00;;;;;;4977512;28;20485;-75
2022/04/22 13:59:54;;;;;;;0.80;0.80;;;22.10;48.00;;;;;;4977827;28;20453;-75
2022/04/22 14:02:22;;;;;;;0.93;0.93;;;22.30;46.90;;;;;;4977550;28;20515;-74
2022/04/22 14:04:50;;;;;;;1.20;1.00;;;22.40;47.20;;;;;;4977482;28;20457;-74
2022/04/22 14:07:17;;;;;;;0.83;0.83;;;22.70;47.20;;;;;;4977598;28;20449;-76
2022/04/22 14:09:43;;;;;;;0.90;0.90;;;23.10;46.10;;;;;;4977060;28;20454;-74
2022/04/22 14:12:11;;;;;;;0.90;0.90;;;22.90;46.00;;;;;;4977128;28;20477;-74
2022/04/22 14:14:38;;;;;;;0.80;0.80;;;22.80;46.10;;;;;;4976688;28;20477;-72
2022/04/22 14:17:05;;;;;;;0.90;0.90;;;22.70;45.90;;;;;;4977916;28;21015;-74
2022/04/22 14:19:33;;;;;;;0.83;0.80;;;22.80;45.60;;;;;;4977285;28;20446;-74
2022/04/22 14:22:00;;;;;;;0.80;0.80;;;22.50;44.50;;;;;;4976616;28;20826;-74
2022/04/22 14:24:27;;;;;;;0.90;0.90;;;22.20;45.50;;;;;;4976468;28;20476;-74
2022/04/22 14:26:54;;;;;;;0.80;0.80;;;21.90;45.80;;;;;;4976364;28;20477;-75
2022/04/22 14:29:21;;;;;;;1.03;1.03;;;21.80;46.80;;;;;;4975644;28;20841;-75
2022/04/22 14:31:48;;;;;;;1.00;1.00;;;22.30;46.40;;;;;;4976343;28;20836;-74
2022/04/22 14:34:15;;;;;;;0.80;0.80;;;22.50;46.30;;;;;;4977338;28;20950;-75
2022/04/22 14:36:43;;;;;;;1.07;1.07;;;22.80;45.10;;;;;;4978057;28;20481;-74
2022/04/22 14:39:09;;;;;;;0.80;0.80;;;22.60;45.70;;;;;;4977455;28;20569;-74
2022/04/22 14:41:36;;;;;;;1.00;0.90;;;22.60;46.40;;;;;;4977328;28;20469;-75
2022/04/22 14:44:03;;;;;;;0.93;0.93;;;22.70;45.80;;;;;;4977440;28;20469;-74
2022/04/22 14:46:30;;;;;;;2.50;0.80;;;23.10;45.40;;;;;;4977440;28;20453;-75
2022/04/22 14:48:57;;;;;;;0.93;0.93;;;23.00;44.90;;;;;;4978298;28;20485;-74
2022/04/22 14:51:24;;;;;;;0.90;0.90;;;22.70;44.90;;;;;;4978277;28;20477;-73
2022/04/22 14:53:52;;;;;;;1.40;1.07;;;22.30;45.30;;;;;;4977803;28;20454;-75
2022/04/22 14:56:20;;;;;;;1.07;0.97;;;22.20;45.40;;;;;;4977208;28;21108;-74
2022/04/22 14:58:49;;;;;;;0.80;0.80;;;22.20;45.20;;;;;;4976178;28;20831;-73
2022/04/22 15:01:15;;;;;;;0.87;0.87;;;22.50;45.90;;;;;;4973784;28;20493;-74
2022/04/22 15:03:42;;;;;;;0.80;0.80;;;23.30;44.40;;;;;;4974119;28;20439;-74
2022/04/22 15:06:10;;;;;;;0.80;0.80;;;24.70;42.30;;;;;;4974182;28;20500;-74
2022/04/22 15:08:36;;;;;;;0.90;0.90;;;25.80;40.10;;;;;;4973936;28;20517;-74
2022/04/22 15:11:04;;;;;;;0.90;0.90;;;26.30;38.80;;;;;;4974369;28;20891;-75
2022/04/22 15:13:34;;;;;;;0.80;0.80;;;26.90;39.00;;;;;;4973668;28;20958;-75
2022/04/22 15:16:01;;;;;;;0.80;0.80;;;27.00;39.20;;;;;;5113872;23;20496;-78
2022/04/22 15:24:12;;;;;;;0.80;0.80;;;27.10;37.80;;;;;;4954941;28;20441;-77
2022/04/22 15:26:42;;;;;;;0.90;0.90;;;26.40;37.90;;;;;;4956854;29;20471;-77
2022/04/22 15:29:09;;;;;;;0.90;0.90;;;26.10;39.40;;;;;;4976104;28;20890;-76
2022/04/22 15:31:37;;;;;;;0.90;0.90;;;25.50;39.70;;;;;;4997429;28;20455;-77
2022/04/22 15:34:04;;;;;;;1.03;0.93;;;24.90;40.30;;;;;;4998064;28;20457;-76
2022/04/22 15:36:31;;;;;;;0.97;0.90;;;24.50;40.90;;;;;;4998140;28;20481;-77
2022/04/22 15:39:01;;;;;;;1.10;1.10;;;24.10;41.20;;;;;;4997817;28;20483;-77
2022/04/22 15:41:31;;;;;;;1.90;0.90;;;23.90;42.10;;;;;;4997938;28;20452;-77
2022/04/22 15:44:00;;;;;;;0.70;0.70;;;23.70;42.70;;;;;;4997610;28;20451;-77
2022/04/22 15:46:27;;;;;;;0.80;0.80;;;23.50;42.40;;;;;;4997234;28;20492;-76
2022/04/22 15:48:55;;;;;;;0.90;0.90;;;22.90;43.10;;;;;;4997257;28;20448;-77
2022/04/22 15:51:22;;;;;;;1.57;1.00;;;22.60;43.20;;;;;;4997290;28;20453;-76
2022/04/22 15:53:49;;;;;;;0.83;0.83;;;22.30;43.80;;;;;;4997382;28;20540;-77
2022/04/22 15:56:16;;;;;;;0.80;0.80;;;22.20;44.30;;;;;;4998171;28;20596;-80
2022/04/22 15:58:45;;;;;;;0.90;0.90;;;22.30;44.50;;;;;;4998964;28;21019;-77
2022/04/22 16:01:15;;;;;;;0.80;0.80;;;22.10;44.50;;;;;;4998011;28;20456;-79
2022/04/22 16:03:48;;;;;;;0.90;0.90;;;21.70;45.70;;;;;;4997668;28;20472;-79
2022/04/22 16:06:16;;;;;;;0.90;0.90;;;21.70;46.10;;;;;;4997578;28;20468;-77
2022/04/22 16:08:42;;;;;;;0.80;0.80;;;21.60;45.80;;;;;;4997535;28;20498;-78
2022/04/22 16:16:40;;;;;;;0.70;0.70;;;21.80;46.10;;;;;;4996881;28;20499;-78
2022/04/22 16:19:06;;;;;;;0.80;0.80;;;21.80;44.80;;;;;;4997032;28;20544;-77
2022/04/22 16:21:33;;;;;;;0.90;0.90;;;21.50;45.30;;;;;;4996710;28;20453;-78
2022/04/22 16:24:00;;;;;;;0.80;0.80;;;21.30;45.40;;;;;;4996675;28;20479;-79
2022/04/22 16:26:27;;;;;;;0.90;0.90;;;21.20;45.30;;;;;;4996404;28;20988;-78
2022/04/22 16:28:54;;;;;;;0.90;0.90;;;21.20;45.50;;;;;;4997449;28;20456;-79
2022/04/22 16:31:22;;;;;;;0.70;0.70;;;21.20;46.60;;;;;;4997170;28;20480;-79
2022/04/22 16:33:50;;;;;;;1.07;0.97;;;21.10;46.60;;;;;;4997111;28;20511;-75
2022/04/22 16:36:17;;;;;;;0.87;0.80;;;21.10;47.10;;;;;;4994963;28;20995;-77
2022/04/22 16:38:45;;;;;;;0.70;0.70;;;21.20;46.20;;;;;;4996983;28;20444;-77
2022/04/22 16:41:12;;;;;;;0.80;0.80;;;21.30;45.70;;;;;;5004090;28;20540;-76
2022/04/22 16:43:39;;;;;;;0.80;0.80;;;21.30;44.90;;;;;;5005062;28;20446;-77
2022/04/22 16:46:08;;;;;;;0.80;0.80;;;21.30;45.10;;;;;;5004609;28;20466;-77
2022/04/22 16:48:35;;;;;;;0.97;0.83;;;21.40;45.50;;;;;;5004778;28;20456;-77
2022/04/22 16:51:04;;;;;;;0.80;0.80;;;21.40;45.90;;;;;;5004874;28;20472;-77
2022/04/22 16:53:32;;;;;;;0.90;0.90;;;21.50;45.60;;;;;;5004932;28;20441;-77
2022/04/22 16:56:00;;;;;;;0.80;0.80;;;21.40;46.10;;;;;;5004743;28;20537;-76
2022/04/22 16:58:27;;;;;;;0.90;0.90;;;21.40;46.10;;;;;;5004544;28;20516;-76
2022/04/22 17:00:53;;;;;;;0.70;0.70;;;21.20;46.50;;;;;;5004513;28;20445;-76
2022/04/22 17:03:20;;;;;;;1.00;0.83;;;21.00;46.50;;;;;;5003921;28;20449;-79
2022/04/22 17:05:48;;;;;;;0.80;0.80;;;21.00;46.30;;;;;;5004191;28;20461;-76
2022/04/22 17:08:16;;;;;;;0.80;0.80;;;21.00;46.50;;;;;;5003500;28;20551;-77
2022/04/22 17:10:43;;;;;;;0.70;0.70;;;21.00;46.60;;;;;;5002271;28;20452;-77
2022/04/22 17:13:09;;;;;;;0.97;0.97;;;20.80;47.10;;;;;;5003691;28;20468;-76